Time;durP1;ratioP1;P1;durP2;ratioP2;P2;SDS_P1;SDS_P2;PMS_P1;PMS_P2;Temp;Humidity;BMP_temperature;BMP_pressure;BME280_temperature;BME280_humidity;BME280_pressure;Samples;Min_cycle;Max_cycle;Signal;HPM_P1;HPM_P2
2021/09/06 00:01:07;;;;;;;6.13;5.53;;;;;;;;;;6370738;22;20402;-71
2021/09/06 00:06:39;;;;;;;7.00;5.70;;;;;;;;;;6381834;22;20428;-71
2021/09/06 00:09:05;;;;;;;6.87;6.17;;;;;;;;;;6371348;22;20375;-72
2021/09/06 00:11:31;;;;;;;6.80;6.10;;;;;;;;;;6381543;22;20403;-72
2021/09/06 00:13:57;;;;;;;7.17;6.10;;;;;;;;;;6382185;22;20675;-71
2021/09/06 00:22:12;;;;;;;9.83;6.63;;;;;;;;;;6381269;22;20416;-71
2021/09/06 00:24:38;;;;;;;7.57;6.33;;;;;;;;;;6371134;22;20742;-72
2021/09/06 00:27:04;;;;;;;6.80;6.20;;;;;;;;;;6373475;22;20431;-72
2021/09/06 00:29:30;;;;;;;7.37;6.50;;;;;;;;;;6371224;22;20375;-71
2021/09/06 00:31:56;;;;;;;6.57;5.90;;;;;;;;;;6371069;22;20374;-72
2021/09/06 00:34:22;;;;;;;8.70;7.20;;;;;;;;;;6371088;22;20386;-71
2021/09/06 00:36:48;;;;;;;7.37;6.50;;;;;;;;;;6371020;22;20375;-71
2021/09/06 00:39:14;;;;;;;8.33;6.77;;;;;;;;;;6371154;22;20379;-71
2021/09/06 00:41:40;;;;;;;8.60;6.50;;;;;;;;;;6370383;22;20367;-71
2021/09/06 00:44:06;;;;;;;8.27;7.50;;;;;;;;;;6381749;22;20983;-71
2021/09/06 00:46:32;;;;;;;7.90;7.10;;;;;;;;;;6370907;22;20364;-71
2021/09/06 00:52:01;;;;;;;8.13;6.93;;;;;;;;;;6381382;22;20480;-71
2021/09/06 00:54:27;;;;;;;7.17;6.37;;;;;;;;;;6370673;22;20416;-71
2021/09/06 00:56:54;;;;;;;7.60;6.80;;;;;;;;;;6370498;22;20375;-72
2021/09/06 00:59:20;;;;;;;7.30;6.60;;;;;;;;;;6370629;22;20818;-72
2021/09/06 01:07:34;;;;;;;6.80;5.90;;;;;;;;;;6380680;22;20411;-71
2021/09/06 01:10:01;;;;;;;7.27;6.23;;;;;;;;;;6370620;22;20371;-72
2021/09/06 01:12:27;;;;;;;11.50;7.03;;;;;;;;;;6370556;22;20468;-72
2021/09/06 01:14:53;;;;;;;8.47;7.10;;;;;;;;;;6370632;22;20372;-72
2021/09/06 01:17:20;;;;;;;7.10;6.40;;;;;;;;;;6370570;22;20376;-72
2021/09/06 01:19:46;;;;;;;8.63;7.27;;;;;;;;;;6381098;22;20374;-71
2021/09/06 01:22:12;;;;;;;8.63;7.70;;;;;;;;;;6370578;22;20363;-72
2021/09/06 01:24:38;;;;;;;7.67;6.80;;;;;;;;;;6370009;22;20514;-72
2021/09/06 01:27:04;;;;;;;7.80;6.97;;;;;;;;;;6372844;22;20479;-72
2021/09/06 01:29:30;;;;;;;8.83;7.93;;;;;;;;;;6381445;22;20382;-72
2021/09/06 01:31:56;;;;;;;9.40;7.60;;;;;;;;;;6370482;22;20352;-73
2021/09/06 01:37:25;;;;;;;7.27;6.50;;;;;;;;;;6381000;22;20466;-72
2021/09/06 01:39:51;;;;;;;12.10;7.30;;;;;;;;;;6370003;22;20420;-71
2021/09/06 01:42:17;;;;;;;8.67;6.87;;;;;;;;;;6380669;22;20375;-72
2021/09/06 01:44:43;;;;;;;10.07;7.60;;;;;;;;;;6370400;22;20954;-73
2021/09/06 01:47:09;;;;;;;8.47;7.50;;;;;;;;;;6370366;22;20371;-72
2021/09/06 01:49:35;;;;;;;8.47;7.67;;;;;;;;;;6380623;22;20405;-73
2021/09/06 01:52:01;;;;;;;8.40;7.07;;;;;;;;;;6370354;22;20374;-73
2021/09/06 01:54:27;;;;;;;9.30;7.43;;;;;;;;;;6369785;22;20367;-72
2021/09/06 01:56:53;;;;;;;9.27;7.63;;;;;;;;;;6369855;22;20363;-72
2021/09/06 01:59:19;;;;;;;9.43;7.10;;;;;;;;;;6381392;22;20535;-72
2021/09/06 02:01:45;;;;;;;8.00;7.17;;;;;;;;;;6380750;22;20375;-72
2021/09/06 02:07:15;;;;;;;11.20;7.83;;;;;;;;;;6380848;22;20389;-73
2021/09/06 02:09:41;;;;;;;9.23;6.90;;;;;;;;;;6370026;22;20363;-71
2021/09/06 02:12:07;;;;;;;7.20;6.50;;;;;;;;;;6369447;22;20367;-71
2021/09/06 02:14:33;;;;;;;7.07;6.37;;;;;;;;;;6370164;22;20485;-72
2021/09/06 02:16:59;;;;;;;9.53;7.40;;;;;;;;;;6380827;22;20375;-72
2021/09/06 02:22:29;;;;;;;6.90;6.30;;;;;;;;;;6380553;22;20463;-72
2021/09/06 02:24:55;;;;;;;11.27;7.77;;;;;;;;;;6370098;22;20403;-72
2021/09/06 02:27:21;;;;;;;10.73;7.57;;;;;;;;;;6369231;22;20419;-72
2021/09/06 02:29:47;;;;;;;10.50;7.30;;;;;;;;;;6369875;22;20817;-72
2021/09/06 02:32:13;;;;;;;8.50;7.60;;;;;;;;;;6370021;22;20366;-72
2021/09/06 02:37:42;;;;;;;9.90;7.17;;;;;;;;;;6380620;22;20692;-72
2021/09/06 02:40:09;;;;;;;8.10;7.30;;;;;;;;;;6370040;22;20363;-73
2021/09/06 02:42:35;;;;;;;15.80;8.80;;;;;;;;;;6369416;22;20444;-72
2021/09/06 02:45:01;;;;;;;15.17;8.00;;;;;;;;;;6370153;22;20391;-72
2021/09/06 02:47:29;;;;;;;10.47;9.37;;;;;;;;;;6369982;22;20378;-72
2021/09/06 02:52:58;;;;;;;10.10;9.17;;;;;;;;;;6380582;22;20519;-72
2021/09/06 02:55:24;;;;;;;10.90;9.20;;;;;;;;;;6380671;22;20371;-72
2021/09/06 02:57:50;;;;;;;11.60;9.00;;;;;;;;;;6380285;22;20375;-72
2021/09/06 03:00:17;;;;;;;10.17;8.97;;;;;;;;;;6369861;22;20359;-72
2021/09/06 03:02:44;;;;;;;10.93;7.73;;;;;;;;;;6380542;22;20691;-72
2021/09/06 03:05:10;;;;;;;9.00;7.63;;;;;;;;;;6369744;22;20363;-72
2021/09/06 03:07:36;;;;;;;8.37;7.27;;;;;;;;;;6369890;22;20439;-72
2021/09/06 03:10:02;;;;;;;6.53;5.93;;;;;;;;;;6369906;22;20355;-72
2021/09/06 03:12:28;;;;;;;7.97;7.17;;;;;;;;;;6369662;22;20374;-72
2021/09/06 03:14:54;;;;;;;11.20;6.80;;;;;;;;;;6369427;22;20355;-71
2021/09/06 03:17:20;;;;;;;9.77;7.80;;;;;;;;;;6369812;22;20372;-71
2021/09/06 03:22:49;;;;;;;9.80;7.17;;;;;;;;;;6380404;22;20745;-72
2021/09/06 03:25:15;;;;;;;7.97;7.27;;;;;;;;;;6371704;22;20367;-72
2021/09/06 03:27:41;;;;;;;8.33;7.50;;;;;;;;;;6371901;22;20407;-72
2021/09/06 03:30:10;;;;;;;8.33;7.00;;;;;;;;;;6371808;22;20844;-72
2021/09/06 03:32:36;;;;;;;7.30;6.60;;;;;;;;;;6371904;22;20434;-72
2021/09/06 03:38:05;;;;;;;7.63;6.40;;;;;;;;;;6382258;22;20762;-71
2021/09/06 03:40:31;;;;;;;16.73;8.37;;;;;;;;;;6371626;22;20363;-72
2021/09/06 03:42:57;;;;;;;12.27;7.73;;;;;;;;;;6371483;22;20403;-72
2021/09/06 03:45:23;;;;;;;8.20;7.50;;;;;;;;;;6371558;22;20376;-72
2021/09/06 03:47:49;;;;;;;8.30;7.50;;;;;;;;;;6371658;22;20394;-71
2021/09/06 03:53:18;;;;;;;9.33;7.67;;;;;;;;;;6381701;22;20386;-71
2021/09/06 03:55:44;;;;;;;8.13;7.33;;;;;;;;;;6370375;22;20372;-71
2021/09/06 03:58:10;;;;;;;8.90;8.07;;;;;;;;;;6371350;22;20825;-72
2021/09/06 04:00:36;;;;;;;9.77;8.00;;;;;;;;;;6371176;22;20367;-72
2021/09/06 04:03:02;;;;;;;8.77;7.67;;;;;;;;;;6371050;22;20438;-72
2021/09/06 04:08:32;;;;;;;8.33;7.50;;;;;;;;;;6381846;22;20378;-73
2021/09/06 04:10:58;;;;;;;9.67;7.80;;;;;;;;;;6382021;22;20363;-72
2021/09/06 04:13:24;;;;;;;12.73;8.20;;;;;;;;;;6381619;22;20855;-71
2021/09/06 04:15:50;;;;;;;9.47;7.90;;;;;;;;;;6370855;22;20405;-71
2021/09/06 04:18:16;;;;;;;8.53;7.70;;;;;;;;;;6343095;22;20464;-71
2021/09/06 04:20:43;;;;;;;9.33;7.03;;;;;;;;;;6371144;22;20419;-71
2021/09/06 04:23:09;;;;;;;8.63;7.67;;;;;;;;;;6370936;22;20423;-71
2021/09/06 04:25:34;;;;;;;8.83;6.90;;;;;;;;;;6370871;22;20667;-71
2021/09/06 04:28:00;;;;;;;9.07;7.67;;;;;;;;;;6381948;22;20380;-71
2021/09/06 04:30:27;;;;;;;10.40;8.00;;;;;;;;;;6370966;22;20395;-71
2021/09/06 04:32:53;;;;;;;8.33;7.33;;;;;;;;;;6382012;22;20378;-71
2021/09/06 04:38:22;;;;;;;9.17;7.77;;;;;;;;;;6381085;22;20378;-71
2021/09/06 04:40:48;;;;;;;11.60;8.20;;;;;;;;;;6370775;22;20541;-71
2021/09/06 04:43:14;;;;;;;9.03;8.13;;;;;;;;;;6370761;22;20460;-71
2021/09/06 04:45:40;;;;;;;11.53;7.60;;;;;;;;;;6370958;22;20454;-71
2021/09/06 04:48:07;;;;;;;10.67;7.97;;;;;;;;;;6371028;22;20356;-71
2021/09/06 04:53:36;;;;;;;10.03;7.80;;;;;;;;;;6381512;22;20369;-71
2021/09/06 04:56:02;;;;;;;11.97;9.70;;;;;;;;;;6370751;22;20458;-71
2021/09/06 04:58:28;;;;;;;13.73;8.40;;;;;;;;;;6342053;22;20411;-71
2021/09/06 05:00:54;;;;;;;10.10;8.93;;;;;;;;;;6370736;22;20370;-72
2021/09/06 05:03:20;;;;;;;13.10;9.03;;;;;;;;;;6370692;22;20957;-71
2021/09/06 05:08:50;;;;;;;10.17;9.23;;;;;;;;;;6381371;22;20405;-71
2021/09/06 05:11:16;;;;;;;12.87;10.20;;;;;;;;;;6370492;22;20367;-71
2021/09/06 05:13:42;;;;;;;14.30;10.60;;;;;;;;;;6370559;22;20386;-71
2021/09/06 05:16:08;;;;;;;19.90;11.67;;;;;;;;;;6370450;22;20367;-71
2021/09/06 05:18:34;;;;;;;11.80;9.53;;;;;;;;;;6380822;22;20466;-71
2021/09/06 05:24:04;;;;;;;12.30;9.50;;;;;;;;;;6380900;22;20429;-72
2021/09/06 05:26:30;;;;;;;12.83;10.07;;;;;;;;;;6370269;22;20431;-71
2021/09/06 05:28:56;;;;;;;10.80;9.80;;;;;;;;;;6370517;22;20648;-71
2021/09/06 05:31:22;;;;;;;11.20;10.10;;;;;;;;;;6370313;22;20763;-71
2021/09/06 05:33:48;;;;;;;13.20;9.50;;;;;;;;;;6381094;22;20827;-71
2021/09/06 05:39:17;;;;;;;12.13;10.60;;;;;;;;;;6380648;22;20420;-71
2021/09/06 05:41:44;;;;;;;10.43;9.37;;;;;;;;;;6369851;22;20624;-73
2021/09/06 05:44:10;;;;;;;11.70;10.50;;;;;;;;;;6369926;22;20426;-71
2021/09/06 05:46:36;;;;;;;12.30;10.33;;;;;;;;;;6369715;22;20446;-72
2021/09/06 05:49:03;;;;;;;19.97;11.47;;;;;;;;;;6370309;22;20371;-72
2021/09/06 05:51:29;;;;;;;12.10;10.80;;;;;;;;;;6370265;22;20371;-72
2021/09/06 05:53:55;;;;;;;14.70;12.03;;;;;;;;;;6370293;22;20375;-72
2021/09/06 05:56:21;;;;;;;11.10;10.00;;;;;;;;;;6381058;22;20393;-72
2021/09/06 05:58:49;;;;;;;12.07;10.97;;;;;;;;;;6370187;22;20725;-72
2021/09/06 06:01:15;;;;;;;18.23;13.20;;;;;;;;;;6342394;22;20851;-72
2021/09/06 06:03:41;;;;;;;14.03;10.77;;;;;;;;;;6370167;22;20498;-72
2021/09/06 06:09:11;;;;;;;12.37;10.50;;;;;;;;;;6380798;22;20462;-71
2021/09/06 06:11:41;;;;;;;12.60;9.53;;;;;;;;;;6380713;22;20383;-72
2021/09/06 06:14:07;;;;;;;13.03;10.00;;;;;;;;;;6370227;22;20797;-72
2021/09/06 06:16:33;;;;;;;10.60;9.50;;;;;;;;;;6370020;22;20584;-72
2021/09/06 06:19:00;;;;;;;11.37;9.83;;;;;;;;;;6368839;22;20378;-71
2021/09/06 06:24:29;;;;;;;15.03;10.87;;;;;;;;;;6380649;22;20441;-71
2021/09/06 06:26:55;;;;;;;14.43;10.40;;;;;;;;;;6369764;22;20900;-71
2021/09/06 06:29:21;;;;;;;17.37;10.80;;;;;;;;;;6370128;22;20367;-71
2021/09/06 06:31:47;;;;;;;14.97;10.40;;;;;;;;;;6370044;22;20685;-71
2021/09/06 06:34:13;;;;;;;13.40;10.40;;;;;;;;;;6342198;22;20407;-71
2021/09/06 06:39:43;;;;;;;13.27;9.60;;;;;;;;;;6380727;22;20793;-71
2021/09/06 06:42:09;;;;;;;13.73;9.40;;;;;;;;;;6369695;22;20379;-71
2021/09/06 06:44:36;;;;;;;14.80;9.70;;;;;;;;;;6369907;22;20515;-71
2021/09/06 06:47:02;;;;;;;19.40;11.27;;;;;;;;;;6342510;22;20701;-71
2021/09/06 06:49:28;;;;;;;17.80;10.60;;;;;;;;;;6374869;22;20375;-70
2021/09/06 06:51:54;;;;;;;16.00;9.60;;;;;;;;;;6372015;22;20395;-71
2021/09/06 06:54:20;;;;;;;20.33;9.80;;;;;;;;;;6342652;22;20489;-71
2021/09/06 06:56:46;;;;;;;12.37;9.60;;;;;;;;;;6380187;22;20434;-71
2021/09/06 06:59:12;;;;;;;24.83;11.30;;;;;;;;;;6371222;22;20374;-71
2021/09/06 07:01:38;;;;;;;17.67;9.67;;;;;;;;;;6382305;22;20367;-70
2021/09/06 07:04:04;;;;;;;16.10;9.70;;;;;;;;;;6371799;22;20419;-72
2021/09/06 07:09:34;;;;;;;21.27;11.33;;;;;;;;;;6382889;22;20389;-71
2021/09/06 07:12:00;;;;;;;15.10;9.60;;;;;;;;;;6371663;22;20387;-71
2021/09/06 07:14:26;;;;;;;13.30;10.03;;;;;;;;;;6382822;22;20450;-71
2021/09/06 07:16:52;;;;;;;18.23;10.10;;;;;;;;;;6371703;22;20355;-72
2021/09/06 07:19:18;;;;;;;15.57;10.10;;;;;;;;;;6382816;22;20447;-71
2021/09/06 07:24:48;;;;;;;15.90;10.50;;;;;;;;;;6377868;22;20449;-71
2021/09/06 07:27:13;;;;;;;13.50;9.60;;;;;;;;;;6371400;22;20434;-72
2021/09/06 07:29:40;;;;;;;14.93;10.17;;;;;;;;;;6371844;22;20382;-72
2021/09/06 07:32:06;;;;;;;18.87;9.77;;;;;;;;;;6371616;22;20367;-72
2021/09/06 07:34:35;;;;;;;11.57;8.90;;;;;;;;;;6382587;22;20387;-72
2021/09/06 07:37:10;;;;;;;14.90;9.30;;;;;;;;;;6382554;22;20375;-72
2021/09/06 07:39:38;;;;;;;20.43;9.80;;;;;;;;;;6371792;22;20730;-72
2021/09/06 07:42:04;;;;;;;11.10;8.90;;;;;;;;;;6381982;22;20382;-71
2021/09/06 07:44:31;;;;;;;11.57;9.60;;;;;;;;;;6343520;22;20438;-72
2021/09/06 07:46:57;;;;;;;24.57;9.10;;;;;;;;;;6371791;22;20370;-71
2021/09/06 07:49:23;;;;;;;18.40;9.80;;;;;;;;;;6371547;22;20368;-71
2021/09/06 07:54:53;;;;;;;18.33;9.87;;;;;;;;;;6382183;22;20405;-70
2021/09/06 07:57:19;;;;;;;18.07;9.33;;;;;;;;;;6371178;22;20374;-71
2021/09/06 07:59:45;;;;;;;11.80;9.77;;;;;;;;;;6382337;22;20406;-72
2021/09/06 08:02:11;;;;;;;10.20;9.10;;;;;;;;;;6371430;22;20359;-72
2021/09/06 08:04:37;;;;;;;14.77;9.80;;;;;;;;;;6371324;22;20460;-71
2021/09/06 08:07:03;;;;;;;13.53;9.20;;;;;;;;;;6381829;22;20383;-71
2021/09/06 08:09:29;;;;;;;14.57;9.17;;;;;;;;;;6343046;22;20393;-72
2021/09/06 08:11:56;;;;;;;13.17;8.37;;;;;;;;;;6371459;22;20403;-71
2021/09/06 08:14:23;;;;;;;13.93;9.93;;;;;;;;;;6382151;22;20443;-71
2021/09/06 08:16:49;;;;;;;12.37;7.90;;;;;;;;;;6371158;22;20364;-71
2021/09/06 08:19:15;;;;;;;8.50;7.63;;;;;;;;;;6371248;22;20371;-71
2021/09/06 08:24:44;;;;;;;9.33;8.20;;;;;;;;;;6382294;22;20433;-71
2021/09/06 08:27:10;;;;;;;9.27;8.37;;;;;;;;;;6373089;22;20431;-72
2021/09/06 08:29:36;;;;;;;13.23;8.87;;;;;;;;;;6382089;22;20463;-71
2021/09/06 08:32:03;;;;;;;10.50;8.27;;;;;;;;;;6381935;22;20391;-71
2021/09/06 08:34:28;;;;;;;15.77;8.83;;;;;;;;;;6371249;22;20675;-71
2021/09/06 08:39:58;;;;;;;16.23;9.70;;;;;;;;;;6381767;22;20382;-71
2021/09/06 08:42:24;;;;;;;14.20;9.10;;;;;;;;;;6370822;22;20382;-71
2021/09/06 08:44:50;;;;;;;9.33;8.00;;;;;;;;;;6342938;22;20517;-72
2021/09/06 08:47:16;;;;;;;10.13;7.27;;;;;;;;;;6381464;22;20435;-71
2021/09/06 08:49:45;;;;;;;13.70;8.40;;;;;;;;;;6381535;22;20701;-72
2021/09/06 08:52:11;;;;;;;12.80;7.67;;;;;;;;;;6381724;22;20431;-71
2021/09/06 08:54:37;;;;;;;7.37;6.67;;;;;;;;;;6381822;22;20383;-72
2021/09/06 08:57:03;;;;;;;11.50;6.97;;;;;;;;;;6370554;22;20470;-72
2021/09/06 08:59:29;;;;;;;10.53;6.80;;;;;;;;;;6370776;22;20382;-72
2021/09/06 09:01:55;;;;;;;11.03;7.80;;;;;;;;;;6381278;22;20379;-72
2021/09/06 09:04:28;;;;;;;7.57;6.80;;;;;;;;;;6381715;22;20438;-72
2021/09/06 09:09:58;;;;;;;7.00;5.80;;;;;;;;;;6381515;22;20370;-72
2021/09/06 09:12:25;;;;;;;10.67;6.50;;;;;;;;;;6370469;22;20375;-72
2021/09/06 09:14:58;;;;;;;8.07;6.40;;;;;;;;;;6381136;22;20395;-72
2021/09/06 09:17:25;;;;;;;10.00;6.87;;;;;;;;;;6381152;22;20411;-72
2021/09/06 09:19:52;;;;;;;6.87;6.10;;;;;;;;;;6370751;22;20366;-72
2021/09/06 09:22:19;;;;;;;9.20;6.20;;;;;;;;;;6370022;22;20367;-71
2021/09/06 09:24:55;;;;;;;13.87;7.50;;;;;;;;;;6381400;22;20431;-71
2021/09/06 09:27:29;;;;;;;13.00;6.90;;;;;;;;;;6370201;22;20426;-72
2021/09/06 09:29:55;;;;;;;8.63;6.47;;;;;;;;;;6370486;22;20359;-71
2021/09/06 09:32:21;;;;;;;7.77;6.57;;;;;;;;;;6370289;22;20720;-71
2021/09/06 09:40:37;;;;;;;7.50;6.70;;;;;;;;;;6381202;22;20361;-70
2021/09/06 09:43:03;;;;;;;6.90;6.20;;;;;;;;;;6370156;22;20407;-71
2021/09/06 09:45:29;;;;;;;6.33;5.73;;;;;;;;;;6370211;22;20370;-71
2021/09/06 09:47:56;;;;;;;8.70;6.03;;;;;;;;;;6370349;22;20368;-71
2021/09/06 09:50:23;;;;;;;6.80;5.27;;;;;;;;;;6370379;22;20374;-71
2021/09/06 09:52:51;;;;;;;6.93;6.20;;;;;;;;;;6380762;22;20383;-71
2021/09/06 09:55:17;;;;;;;7.03;5.70;;;;;;;;;;6380914;22;20368;-72
2021/09/06 09:57:43;;;;;;;5.80;5.03;;;;;;;;;;6381102;22;20432;-71
2021/09/06 10:00:09;;;;;;;6.63;5.90;;;;;;;;;;6381088;22;20363;-71
2021/09/06 10:02:36;;;;;;;7.07;6.37;;;;;;;;;;6370327;22;20371;-71
2021/09/06 10:05:04;;;;;;;9.10;6.27;;;;;;;;;;6370122;22;20426;-71
2021/09/06 10:07:35;;;;;;;8.33;5.80;;;;;;;;;;6380489;22;20378;-72
2021/09/06 10:10:12;;;;;;;7.17;6.57;;;;;;;;;;6370314;22;20382;-72
2021/09/06 10:12:38;;;;;;;6.20;5.60;;;;;;;;;;6342119;22;20391;-72
2021/09/06 10:15:05;;;;;;;7.60;6.90;;;;;;;;;;6370096;22;20875;-72
2021/09/06 10:17:35;;;;;;;8.90;6.97;;;;;;;;;;6380613;22;20413;-71
2021/09/06 10:20:03;;;;;;;9.10;7.50;;;;;;;;;;6370203;22;20375;-72
2021/09/06 10:22:30;;;;;;;7.90;7.03;;;;;;;;;;6370053;22;20458;-72
2021/09/06 10:24:56;;;;;;;7.73;7.03;;;;;;;;;;6380534;22;20423;-71
2021/09/06 10:27:22;;;;;;;7.83;7.03;;;;;;;;;;6370902;22;20556;-72
2021/09/06 10:29:58;;;;;;;8.27;6.83;;;;;;;;;;6380593;22;20790;-72
2021/09/06 10:32:34;;;;;;;8.23;7.00;;;;;;;;;;6369859;22;20371;-71
2021/09/06 10:41:15;;;;;;;7.60;6.80;;;;;;;;;;6380390;22;20659;-72
2021/09/06 10:43:44;;;;;;;8.20;7.10;;;;;;;;;;6380437;22;20748;-71
2021/09/06 10:46:11;;;;;;;7.03;6.33;;;;;;;;;;6369856;22;20833;-70
2021/09/06 10:48:37;;;;;;;7.93;7.03;;;;;;;;;;6370003;22;20373;-71
2021/09/06 10:51:04;;;;;;;7.80;7.13;;;;;;;;;;6380794;22;20662;-71
2021/09/06 10:53:30;;;;;;;8.27;7.57;;;;;;;;;;6369979;22;20370;-71
2021/09/06 10:55:56;;;;;;;6.93;6.20;;;;;;;;;;6369731;22;20359;-71
2021/09/06 10:58:26;;;;;;;7.23;6.63;;;;;;;;;;6369921;22;20359;-71
2021/09/06 11:00:54;;;;;;;6.93;6.33;;;;;;;;;;6380745;22;20371;-72
2021/09/06 11:03:21;;;;;;;13.00;6.03;;;;;;;;;;6370076;22;20414;-72
2021/09/06 11:05:51;;;;;;;6.40;5.80;;;;;;;;;;6380888;22;20383;-72
2021/09/06 11:08:22;;;;;;;6.70;5.30;;;;;;;;;;6380935;22;20461;-72
2021/09/06 11:10:49;;;;;;;9.83;6.57;;;;;;;;;;6369889;22;20762;-72
2021/09/06 11:13:15;;;;;;;10.87;6.93;;;;;;;;;;6369944;22;20363;-71
2021/09/06 11:15:41;;;;;;;9.13;6.93;;;;;;;;;;6369910;22;20375;-71
2021/09/06 11:18:08;;;;;;;8.13;7.30;;;;;;;;;;6369949;22;20366;-71
2021/09/06 11:20:35;;;;;;;8.13;6.77;;;;;;;;;;6380938;22;20730;-71
2021/09/06 11:23:03;;;;;;;6.97;6.33;;;;;;;;;;6369839;22;20363;-71
2021/09/06 11:25:29;;;;;;;7.27;6.60;;;;;;;;;;6369530;22;20551;-72
2021/09/06 11:28:05;;;;;;;8.10;6.70;;;;;;;;;;6380795;22;20375;-71
2021/09/06 11:30:32;;;;;;;6.93;6.33;;;;;;;;;;6341935;22;20861;-71
2021/09/06 11:32:58;;;;;;;7.40;6.50;;;;;;;;;;6381196;22;20435;-71
2021/09/06 11:35:24;;;;;;;6.60;6.10;;;;;;;;;;6375702;22;20787;-72
2021/09/06 11:37:51;;;;;;;7.20;6.50;;;;;;;;;;6371293;22;20394;-72
2021/09/06 11:40:17;;;;;;;7.67;6.87;;;;;;;;;;6380224;22;20430;-72
2021/09/06 11:42:44;;;;;;;6.70;6.10;;;;;;;;;;6369730;22;20413;-70
2021/09/06 11:45:10;;;;;;;6.70;6.10;;;;;;;;;;6381705;22;20896;-71
2021/09/06 11:47:37;;;;;;;7.00;6.40;;;;;;;;;;6371852;22;20352;-71
2021/09/06 11:50:03;;;;;;;8.80;7.03;;;;;;;;;;6371799;22;20450;-72
2021/09/06 11:55:32;;;;;;;7.37;6.77;;;;;;;;;;6382124;22;20636;-71
2021/09/06 11:58:05;;;;;;;8.63;6.97;;;;;;;;;;6371480;22;20359;-71
2021/09/06 12:00:31;;;;;;;6.93;6.23;;;;;;;;;;6371583;22;20363;-71
2021/09/06 12:02:59;;;;;;;9.20;7.37;;;;;;;;;;6371316;22;20822;-70
2021/09/06 12:05:36;;;;;;;8.13;7.33;;;;;;;;;;6382392;22;20387;-71
2021/09/06 12:08:02;;;;;;;7.77;7.07;;;;;;;;;;6371490;22;20386;-71
2021/09/06 12:10:35;;;;;;;6.90;6.20;;;;;;;;;;6371258;22;20376;-71
2021/09/06 12:13:02;;;;;;;7.33;6.73;;;;;;;;;;6371262;22;20472;-71
2021/09/06 12:15:29;;;;;;;6.90;6.30;;;;;;;;;;6371245;22;20367;-71
2021/09/06 12:18:10;;;;;;;7.33;6.53;;;;;;;;;;6382274;22;20727;-71
2021/09/06 12:20:39;;;;;;;9.47;8.00;;;;;;;;;;6371331;22;20833;-71
2021/09/06 12:23:06;;;;;;;7.53;6.83;;;;;;;;;;6378842;22;20424;-71
2021/09/06 12:25:32;;;;;;;8.53;6.60;;;;;;;;;;6380444;22;20448;-71
2021/09/06 12:28:18;;;;;;;6.80;5.73;;;;;;;;;;6381255;22;20462;-71
2021/09/06 12:30:44;;;;;;;7.37;6.67;;;;;;;;;;6370640;22;20390;-72
2021/09/06 12:33:11;;;;;;;7.20;6.53;;;;;;;;;;6370834;22;20360;-71
2021/09/06 12:35:38;;;;;;;7.60;6.13;;;;;;;;;;6381525;22;20383;-71
2021/09/06 12:38:07;;;;;;;7.20;5.77;;;;;;;;;;6370582;22;20364;-73
2021/09/06 12:40:33;;;;;;;6.70;6.03;;;;;;;;;;6368816;22;20440;-72
2021/09/06 12:42:59;;;;;;;6.07;5.57;;;;;;;;;;6369406;22;20383;-72
2021/09/06 12:45:25;;;;;;;6.70;5.70;;;;;;;;;;6369649;22;20454;-72
2021/09/06 12:47:51;;;;;;;6.13;5.53;;;;;;;;;;6366885;22;20442;-72
2021/09/06 12:50:17;;;;;;;6.67;5.90;;;;;;;;;;6378247;22;20410;-72
2021/09/06 12:55:46;;;;;;;6.30;5.67;;;;;;;;;;6378485;22;20366;-72
2021/09/06 12:58:13;;;;;;;6.83;5.57;;;;;;;;;;6338932;22;20718;-73
2021/09/06 13:00:39;;;;;;;8.33;6.67;;;;;;;;;;6366531;22;20728;-72
2021/09/06 13:03:05;;;;;;;6.23;5.67;;;;;;;;;;6367845;22;20360;-72
2021/09/06 13:05:31;;;;;;;6.50;5.90;;;;;;;;;;6378999;22;20432;-72
2021/09/06 13:11:00;;;;;;;8.77;5.43;;;;;;;;;;6378501;22;20442;-72
2021/09/06 13:13:27;;;;;;;6.37;5.70;;;;;;;;;;6367519;22;20368;-72
2021/09/06 13:15:57;;;;;;;6.30;5.70;;;;;;;;;;6368146;22;20687;-71
2021/09/06 13:18:23;;;;;;;7.70;7.00;;;;;;;;;;6368060;22;20359;-72
2021/09/06 13:20:49;;;;;;;7.50;6.07;;;;;;;;;;6368340;22;20405;-72
2021/09/06 13:23:15;;;;;;;6.70;6.00;;;;;;;;;;6368017;22;20413;-72
2021/09/06 13:25:41;;;;;;;6.53;5.93;;;;;;;;;;6368822;22;20530;-71
2021/09/06 13:28:07;;;;;;;6.70;6.10;;;;;;;;;;6369472;22;20370;-71
2021/09/06 13:30:33;;;;;;;6.20;5.70;;;;;;;;;;6369524;22;20842;-71
2021/09/06 13:32:59;;;;;;;6.60;6.00;;;;;;;;;;6369260;22;20387;-71
2021/09/06 13:35:25;;;;;;;6.00;5.50;;;;;;;;;;6379722;22;20395;-71
2021/09/06 13:40:54;;;;;;;6.50;5.90;;;;;;;;;;6379847;22;20848;-72
2021/09/06 13:43:20;;;;;;;12.10;6.70;;;;;;;;;;6369174;22;20507;-72
2021/09/06 13:45:47;;;;;;;8.40;6.23;;;;;;;;;;6340782;22;20711;-72
2021/09/06 13:48:13;;;;;;;7.80;5.80;;;;;;;;;;6369279;22;20363;-72
2021/09/06 13:50:39;;;;;;;6.90;6.20;;;;;;;;;;6370371;22;20409;-72
2021/09/06 13:56:08;;;;;;;6.70;6.00;;;;;;;;;;6380711;22;20868;-71
2021/09/06 13:58:34;;;;;;;6.67;6.07;;;;;;;;;;6367769;22;20358;-72
2021/09/06 14:01:01;;;;;;;7.00;5.80;;;;;;;;;;6368978;22;20363;-72
2021/09/06 14:03:26;;;;;;;6.43;5.83;;;;;;;;;;6367981;22;20556;-72
2021/09/06 14:05:52;;;;;;;6.90;5.90;;;;;;;;;;6370384;22;20403;-72
2021/09/06 14:11:22;;;;;;;6.73;6.13;;;;;;;;;;6380783;22;20379;-72
2021/09/06 14:13:48;;;;;;;7.87;5.53;;;;;;;;;;6369812;22;20830;-72
2021/09/06 14:16:14;;;;;;;6.50;5.90;;;;;;;;;;6369918;22;20365;-72
2021/09/06 14:18:40;;;;;;;6.90;6.20;;;;;;;;;;6369892;22;20359;-72
2021/09/06 14:21:07;;;;;;;6.53;5.80;;;;;;;;;;6369665;22;20427;-72
2021/09/06 14:26:37;;;;;;;7.50;6.10;;;;;;;;;;6375770;22;20457;-72
2021/09/06 14:29:04;;;;;;;6.03;5.37;;;;;;;;;;6366870;22;20706;-73
2021/09/06 14:31:31;;;;;;;6.40;5.23;;;;;;;;;;6339356;22;20470;-73
2021/09/06 14:33:57;;;;;;;6.30;5.67;;;;;;;;;;6367106;22;20399;-72
2021/09/06 14:36:23;;;;;;;5.83;5.30;;;;;;;;;;6366153;22;20427;-72
2021/09/06 14:41:54;;;;;;;6.43;5.83;;;;;;;;;;6378798;22;20405;-72
2021/09/06 14:44:20;;;;;;;7.00;6.30;;;;;;;;;;6368351;22;20961;-72
2021/09/06 14:46:47;;;;;;;7.03;6.40;;;;;;;;;;6378864;22;20378;-72
2021/09/06 14:49:13;;;;;;;6.33;5.80;;;;;;;;;;6378997;22;20838;-72
2021/09/06 14:51:39;;;;;;;7.57;6.87;;;;;;;;;;6368396;22;20399;-71
2021/09/06 14:54:05;;;;;;;7.10;6.10;;;;;;;;;;6368289;22;20757;-72
2021/09/06 14:56:31;;;;;;;6.20;5.60;;;;;;;;;;6368072;22;20368;-71
2021/09/06 14:58:57;;;;;;;6.83;6.03;;;;;;;;;;6340399;22;20783;-72
2021/09/06 15:01:24;;;;;;;7.80;5.57;;;;;;;;;;6379120;22;20388;-72
2021/09/06 15:03:50;;;;;;;6.37;5.77;;;;;;;;;;6378887;22;20427;-71
2021/09/06 15:06:16;;;;;;;5.87;5.27;;;;;;;;;;6368288;22;20375;-72
2021/09/06 15:11:46;;;;;;;6.40;5.90;;;;;;;;;;6378884;22;20502;-72
2021/09/06 15:14:12;;;;;;;5.90;5.40;;;;;;;;;;6368580;22;20359;-72
2021/09/06 15:16:38;;;;;;;7.00;6.40;;;;;;;;;;6368622;22;20474;-73
2021/09/06 15:19:04;;;;;;;9.03;5.63;;;;;;;;;;6368936;22;20363;-71
2021/09/06 15:21:30;;;;;;;8.17;6.00;;;;;;;;;;6366916;22;20387;-72
2021/09/06 15:26:59;;;;;;;7.97;6.97;;;;;;;;;;6380385;22;20432;-73
2021/09/06 15:29:25;;;;;;;5.83;5.33;;;;;;;;;;6370191;22;20407;-71
2021/09/06 15:31:52;;;;;;;6.43;5.83;;;;;;;;;;6370201;22;20352;-71
2021/09/06 15:34:19;;;;;;;6.23;5.63;;;;;;;;;;6370573;22;20667;-71
2021/09/06 15:36:46;;;;;;;5.67;5.17;;;;;;;;;;6368209;22;20689;-71
2021/09/06 15:42:15;;;;;;;5.83;5.30;;;;;;;;;;6379804;22;20370;-72
2021/09/06 15:44:41;;;;;;;6.43;5.77;;;;;;;;;;6369323;22;20441;-73
2021/09/06 15:47:07;;;;;;;6.90;5.17;;;;;;;;;;6369809;22;20830;-72
2021/09/06 15:49:33;;;;;;;6.33;5.73;;;;;;;;;;6370468;22;20379;-74
2021/09/06 15:51:59;;;;;;;5.57;5.03;;;;;;;;;;6369921;22;20363;-72
2021/09/06 15:57:28;;;;;;;5.93;5.43;;;;;;;;;;6380956;22;20428;-71
2021/09/06 15:59:55;;;;;;;5.50;5.00;;;;;;;;;;6370542;22;20372;-71
2021/09/06 16:02:21;;;;;;;6.00;5.40;;;;;;;;;;6381257;22;20699;-71
2021/09/06 16:04:48;;;;;;;6.83;5.80;;;;;;;;;;6342417;22;20435;-71
2021/09/06 16:07:14;;;;;;;6.57;5.70;;;;;;;;;;6370529;22;20398;-71
2021/09/06 16:09:40;;;;;;;5.60;5.10;;;;;;;;;;6370426;22;20382;-71
2021/09/06 16:12:07;;;;;;;6.57;5.97;;;;;;;;;;6380568;22;20852;-70
2021/09/06 16:14:33;;;;;;;8.60;7.43;;;;;;;;;;6370433;22;20383;-71
2021/09/06 16:16:59;;;;;;;5.13;4.73;;;;;;;;;;6370429;22;20390;-71
2021/09/06 16:19:25;;;;;;;6.00;5.50;;;;;;;;;;6381102;22;20379;-71
2021/09/06 16:21:51;;;;;;;5.27;4.77;;;;;;;;;;6370022;22;20655;-71
2021/09/06 16:27:20;;;;;;;6.37;5.70;;;;;;;;;;6380335;22;20502;-71
2021/09/06 16:29:46;;;;;;;5.73;5.20;;;;;;;;;;6369724;22;20806;-71
2021/09/06 16:32:12;;;;;;;6.00;5.50;;;;;;;;;;6369939;22;20372;-71
2021/09/06 16:34:38;;;;;;;6.07;5.53;;;;;;;;;;6380671;22;20375;-71
2021/09/06 16:37:06;;;;;;;6.10;4.90;;;;;;;;;;6370020;22;20471;-71
2021/09/06 16:42:35;;;;;;;5.40;4.70;;;;;;;;;;6380891;22;20859;-71
2021/09/06 16:45:01;;;;;;;7.07;6.37;;;;;;;;;;6369884;22;20450;-71
2021/09/06 16:47:27;;;;;;;5.90;5.30;;;;;;;;;;6369866;22;20539;-71
2021/09/06 16:49:53;;;;;;;6.10;5.53;;;;;;;;;;6380512;22;20375;-71
2021/09/06 16:52:19;;;;;;;6.73;6.13;;;;;;;;;;6369833;22;20454;-70
2021/09/06 16:54:45;;;;;;;11.50;10.40;;;;;;;;;;6369777;22;20798;-71
2021/09/06 16:57:11;;;;;;;9.00;7.67;;;;;;;;;;6380240;22;20367;-71